SDM715 UGTB-UDYZ
Flight info
| Callsign | SDM715 |
|---|---|
| Flight time | 0h 26m |
| Altitude | 16000 |
| Route | TAVRO DCT GM/N0362F150 DCT TIBLO |
| Aircraft | A319/M-SDE3FGHIRWY/LB1 |
Departure
| Time | 2026-04-29 00:55 |
|---|---|
| Airport | Tbilisi International Airport (UGTB) |
Arrival
| Time | 2026-04-29 01:22 |
|---|---|
| Airport | Zvartnots International Airport (UDYZ) |
| Time | Latitude | Longitude | Altitude | Speed | Heading |
|---|---|---|---|---|---|
| 2026-04-29 00:41 | 41.66900 | 44.96349 | 1527 ft | 0 kts | 43° |
| 2026-04-29 00:46 | 41.66886 | 44.96332 | 1519 ft | 4 kts | 41° |
| 2026-04-29 00:46 | 41.66865 | 44.96309 | 1520 ft | 4 kts | 35° |
| 2026-04-29 00:46 | 41.66843 | 44.96291 | 1521 ft | 4 kts | 15° |
| 2026-04-29 00:47 | 41.66821 | 44.96291 | 1521 ft | 2 kts | 317° |
| 2026-04-29 00:47 | 41.66820 | 44.96293 | 1522 ft | 0 kts | 315° |
| 2026-04-29 00:48 | 41.66823 | 44.96289 | 1523 ft | 3 kts | 315° |
| 2026-04-29 00:49 | 41.66841 | 44.96263 | 1521 ft | 4 kts | 312° |
| 2026-04-29 00:49 | 41.66877 | 44.96210 | 1521 ft | 11 kts | 312° |
| 2026-04-29 00:49 | 41.66926 | 44.96132 | 1522 ft | 11 kts | 311° |
| 2026-04-29 00:49 | 41.66978 | 44.96057 | 1525 ft | 11 kts | 313° |
| 2026-04-29 00:50 | 41.67030 | 44.95982 | 1527 ft | 11 kts | 313° |
| 2026-04-29 00:50 | 41.67073 | 44.95899 | 1522 ft | 11 kts | 300° |
| 2026-04-29 00:50 | 41.67121 | 44.95821 | 1521 ft | 11 kts | 313° |
| 2026-04-29 00:50 | 41.67174 | 44.95747 | 1520 ft | 11 kts | 314° |
| 2026-04-29 00:51 | 41.67235 | 44.95664 | 1525 ft | 15 kts | 313° |
| 2026-04-29 00:51 | 41.67312 | 44.95560 | 1525 ft | 16 kts | 314° |
| 2026-04-29 00:51 | 41.67387 | 44.95454 | 1522 ft | 16 kts | 312° |
| 2026-04-29 00:51 | 41.67457 | 44.95345 | 1525 ft | 16 kts | 310° |
| 2026-04-29 00:52 | 41.67528 | 44.95234 | 1522 ft | 16 kts | 312° |
| 2026-04-29 00:52 | 41.67603 | 44.95126 | 1523 ft | 16 kts | 314° |
| 2026-04-29 00:52 | 41.67662 | 44.95007 | 1522 ft | 16 kts | 269° |
| 2026-04-29 00:52 | 41.67635 | 44.94866 | 1526 ft | 16 kts | 253° |
| 2026-04-29 00:53 | 41.67601 | 44.94725 | 1522 ft | 16 kts | 250° |
| 2026-04-29 00:53 | 41.67565 | 44.94583 | 1525 ft | 16 kts | 253° |
| 2026-04-29 00:53 | 41.67531 | 44.94436 | 1525 ft | 16 kts | 250° |
| 2026-04-29 00:53 | 41.67443 | 44.94449 | 1525 ft | 8 kts | 137° |
| 2026-04-29 00:54 | 41.67440 | 44.94452 | 1524 ft | 1 kts | 137° |
| 2026-04-29 00:54 | 41.67388 | 44.94518 | 1522 ft | 39 kts | 136° |
| 2026-04-29 00:54 | 41.66994 | 44.95015 | 1526 ft | 113 kts | 137° |
| 2026-04-29 00:54 | 41.66272 | 44.95928 | 1564 ft | 165 kts | 135° |
| 2026-04-29 00:55 | 41.65422 | 44.96990 | 2203 ft | 167 kts | 136° |
| 2026-04-29 00:55 | 41.64558 | 44.98029 | 2910 ft | 168 kts | 136° |
| 2026-04-29 00:55 | 41.63638 | 44.99132 | 3373 ft | 188 kts | 136° |
| 2026-04-29 00:55 | 41.62615 | 45.00394 | 3745 ft | 211 kts | 136° |
| 2026-04-29 00:56 | 41.61460 | 45.01761 | 4194 ft | 233 kts | 144° |
| 2026-04-29 00:56 | 41.59842 | 45.02400 | 4719 ft | 260 kts | 182° |
| 2026-04-29 00:56 | 41.58133 | 45.01535 | 5556 ft | 273 kts | 218° |
| 2026-04-29 00:56 | 41.56938 | 44.99548 | 6549 ft | 278 kts | 240° |
| 2026-04-29 00:57 | 41.56066 | 44.97267 | 7500 ft | 281 kts | 244° |
| 2026-04-29 00:57 | 41.55211 | 44.94911 | 8491 ft | 283 kts | 244° |
| 2026-04-29 00:57 | 41.54353 | 44.92538 | 9487 ft | 285 kts | 243° |
| 2026-04-29 00:57 | 41.53453 | 44.90167 | 10338 ft | 292 kts | 239° |
| 2026-04-29 00:58 | 41.52309 | 44.87797 | 10660 ft | 316 kts | 234° |
| 2026-04-29 00:58 | 41.50953 | 44.85353 | 10936 ft | 339 kts | 232° |
| 2026-04-29 00:58 | 41.49453 | 44.82784 | 11201 ft | 360 kts | 231° |
| 2026-04-29 00:58 | 41.47890 | 44.80115 | 11772 ft | 369 kts | 232° |
| 2026-04-29 00:59 | 41.46314 | 44.77377 | 12447 ft | 375 kts | 233° |
| 2026-04-29 00:59 | 41.44734 | 44.74576 | 13130 ft | 381 kts | 233° |
| 2026-04-29 00:59 | 41.43142 | 44.71717 | 13807 ft | 387 kts | 234° |
| 2026-04-29 00:59 | 41.41533 | 44.68804 | 14442 ft | 392 kts | 234° |
| 2026-04-29 01:00 | 41.39930 | 44.65909 | 15094 ft | 395 kts | 232° |
| 2026-04-29 01:00 | 41.38083 | 44.63185 | 15765 ft | 397 kts | 224° |
| 2026-04-29 01:00 | 41.35942 | 44.60853 | 16044 ft | 398 kts | 215° |
| 2026-04-29 01:00 | 41.33521 | 44.58992 | 16127 ft | 409 kts | 205° |
| 2026-04-29 01:01 | 41.30872 | 44.57386 | 16133 ft | 425 kts | 204° |
| 2026-04-29 01:01 | 41.28166 | 44.55750 | 16130 ft | 429 kts | 204° |
| 2026-04-29 01:01 | 41.25454 | 44.54105 | 16131 ft | 430 kts | 205° |
| 2026-04-29 01:01 | 41.22734 | 44.52450 | 16128 ft | 430 kts | 205° |
| 2026-04-29 01:02 | 41.20106 | 44.50559 | 16129 ft | 430 kts | 213° |
| 2026-04-29 01:02 | 41.17740 | 44.48122 | 16130 ft | 430 kts | 223° |
| 2026-04-29 01:02 | 41.15659 | 44.45263 | 16132 ft | 430 kts | 227° |
| 2026-04-29 01:02 | 41.13626 | 44.42348 | 16130 ft | 430 kts | 227° |
| 2026-04-29 01:03 | 41.11590 | 44.39439 | 16133 ft | 430 kts | 227° |
| 2026-04-29 01:03 | 41.09549 | 44.36531 | 16129 ft | 430 kts | 227° |
| 2026-04-29 01:03 | 41.07510 | 44.33634 | 16131 ft | 430 kts | 227° |
| 2026-04-29 01:03 | 41.05463 | 44.30726 | 16128 ft | 430 kts | 227° |
| 2026-04-29 01:04 | 41.03428 | 44.27833 | 16129 ft | 430 kts | 227° |
| 2026-04-29 01:04 | 41.01417 | 44.24972 | 16132 ft | 430 kts | 227° |
| 2026-04-29 01:04 | 40.99383 | 44.22080 | 16126 ft | 430 kts | 227° |
| 2026-04-29 01:04 | 40.97341 | 44.19181 | 16125 ft | 429 kts | 227° |
| 2026-04-29 01:05 | 40.95299 | 44.16290 | 16127 ft | 429 kts | 227° |
| 2026-04-29 01:05 | 40.93257 | 44.13403 | 16119 ft | 429 kts | 227° |
| 2026-04-29 01:05 | 40.91215 | 44.10520 | 16120 ft | 429 kts | 227° |
| 2026-04-29 01:05 | 40.89174 | 44.07635 | 16106 ft | 429 kts | 227° |
| 2026-04-29 01:06 | 40.87140 | 44.04753 | 16101 ft | 429 kts | 227° |
| 2026-04-29 01:06 | 40.85106 | 44.01875 | 16100 ft | 429 kts | 227° |
| 2026-04-29 01:06 | 40.83067 | 43.98997 | 16090 ft | 429 kts | 227° |
| 2026-04-29 01:06 | 40.81026 | 43.96129 | 16090 ft | 429 kts | 227° |
| 2026-04-29 01:07 | 40.78983 | 43.93261 | 16091 ft | 429 kts | 227° |
| 2026-04-29 01:07 | 40.76942 | 43.90397 | 16090 ft | 429 kts | 227° |
| 2026-04-29 01:07 | 40.74815 | 43.87637 | 16084 ft | 429 kts | 220° |
| 2026-04-29 01:07 | 40.72380 | 43.85377 | 16084 ft | 429 kts | 210° |
| 2026-04-29 01:08 | 40.69682 | 43.83698 | 16084 ft | 429 kts | 200° |
| 2026-04-29 01:08 | 40.66819 | 43.82602 | 16084 ft | 429 kts | 194° |
| 2026-04-29 01:08 | 40.63921 | 43.81624 | 16080 ft | 429 kts | 194° |
| 2026-04-29 01:08 | 40.61025 | 43.80639 | 16075 ft | 429 kts | 195° |
| 2026-04-29 01:09 | 40.58174 | 43.79662 | 16071 ft | 429 kts | 195° |
| 2026-04-29 01:09 | 40.55282 | 43.78664 | 16067 ft | 429 kts | 195° |
| 2026-04-29 01:09 | 40.52393 | 43.77666 | 16063 ft | 429 kts | 195° |
| 2026-04-29 01:09 | 40.49502 | 43.76675 | 16059 ft | 429 kts | 194° |
| 2026-04-29 01:10 | 40.46610 | 43.75691 | 16050 ft | 429 kts | 195° |
| 2026-04-29 01:10 | 40.43713 | 43.74708 | 16044 ft | 429 kts | 195° |
| 2026-04-29 01:10 | 40.40807 | 43.73785 | 16034 ft | 430 kts | 191° |
| 2026-04-29 01:10 | 40.37887 | 43.73388 | 15805 ft | 415 kts | 181° |
| 2026-04-29 01:11 | 40.35082 | 43.73611 | 15548 ft | 392 kts | 172° |
| 2026-04-29 01:11 | 40.32471 | 43.74138 | 15418 ft | 366 kts | 171° |
| 2026-04-29 01:11 | 40.30039 | 43.74621 | 15290 ft | 342 kts | 171° |
| 2026-04-29 01:11 | 40.27779 | 43.75064 | 15063 ft | 325 kts | 172° |
| 2026-04-29 01:12 | 40.25537 | 43.75497 | 14572 ft | 318 kts | 172° |
| 2026-04-29 01:12 | 40.23389 | 43.75908 | 14039 ft | 315 kts | 172° |
| 2026-04-29 01:12 | 40.21230 | 43.76319 | 13459 ft | 312 kts | 172° |
| 2026-04-29 01:12 | 40.19144 | 43.76772 | 13241 ft | 296 kts | 164° |
| 2026-04-29 01:13 | 40.17352 | 43.77949 | 12833 ft | 286 kts | 139° |
| 2026-04-29 01:13 | 40.16126 | 43.79939 | 12343 ft | 281 kts | 114° |
| 2026-04-29 01:13 | 40.15629 | 43.82372 | 11831 ft | 276 kts | 93° |
| 2026-04-29 01:13 | 40.15526 | 43.84875 | 11293 ft | 275 kts | 92° |
| 2026-04-29 01:14 | 40.15423 | 43.87359 | 10781 ft | 273 kts | 92° |
| 2026-04-29 01:14 | 40.15316 | 43.89841 | 10123 ft | 276 kts | 92° |
| 2026-04-29 01:14 | 40.15205 | 43.92370 | 9365 ft | 281 kts | 92° |
| 2026-04-29 01:14 | 40.15089 | 43.94928 | 8683 ft | 281 kts | 92° |
| 2026-04-29 01:15 | 40.14974 | 43.97453 | 8174 ft | 275 kts | 93° |
| 2026-04-29 01:15 | 40.14860 | 43.99919 | 7712 ft | 268 kts | 94° |
| 2026-04-29 01:15 | 40.14584 | 44.02297 | 7270 ft | 261 kts | 98° |
| 2026-04-29 01:15 | 40.14463 | 44.04635 | 6838 ft | 255 kts | 90° |
| 2026-04-29 01:16 | 40.14485 | 44.06929 | 6420 ft | 250 kts | 89° |
| 2026-04-29 01:16 | 40.14514 | 44.09136 | 6154 ft | 238 kts | 89° |
| 2026-04-29 01:16 | 40.14533 | 44.11214 | 6103 ft | 219 kts | 89° |
| 2026-04-29 01:16 | 40.14548 | 44.13135 | 6085 ft | 202 kts | 89° |
| 2026-04-29 01:17 | 40.14562 | 44.14904 | 5972 ft | 187 kts | 89° |
| 2026-04-29 01:17 | 40.14575 | 44.16528 | 5887 ft | 174 kts | 89° |
| 2026-04-29 01:17 | 40.14586 | 44.18091 | 5701 ft | 170 kts | 89° |
| 2026-04-29 01:17 | 40.14598 | 44.19627 | 5491 ft | 168 kts | 89° |
| 2026-04-29 01:18 | 40.14609 | 44.21151 | 5276 ft | 167 kts | 88° |
| 2026-04-29 01:18 | 40.14627 | 44.23654 | 4918 ft | 164 kts | 89° |
| 2026-04-29 01:18 | 40.14640 | 44.25603 | 4625 ft | 156 kts | 89° |
| 2026-04-29 01:19 | 40.14646 | 44.26531 | 4489 ft | 152 kts | 89° |
| 2026-04-29 01:19 | 40.14655 | 44.27908 | 4284 ft | 152 kts | 89° |
| 2026-04-29 01:19 | 40.14664 | 44.29280 | 4079 ft | 151 kts | 89° |
| 2026-04-29 01:19 | 40.14673 | 44.30646 | 3876 ft | 150 kts | 89° |
| 2026-04-29 01:20 | 40.14682 | 44.32010 | 3668 ft | 150 kts | 90° |
| 2026-04-29 01:20 | 40.14690 | 44.33367 | 3456 ft | 148 kts | 90° |
| 2026-04-29 01:20 | 40.14700 | 44.34711 | 3249 ft | 147 kts | 90° |
| 2026-04-29 01:20 | 40.14714 | 44.36023 | 3051 ft | 146 kts | 91° |
| 2026-04-29 01:21 | 40.14723 | 44.37340 | 2859 ft | 144 kts | 91° |
| 2026-04-29 01:21 | 40.14728 | 44.38528 | 2831 ft | 84 kts | 90° |
| 2026-04-29 01:21 | 40.14730 | 44.39133 | 2830 ft | 62 kts | 90° |
| 2026-04-29 01:21 | 40.14733 | 44.39678 | 2833 ft | 58 kts | 89° |
| 2026-04-29 01:22 | 40.14735 | 44.39977 | 2836 ft | 12 kts | 83° |
| 2026-04-29 01:22 | 40.14803 | 44.40032 | 2837 ft | 12 kts | 14° |
| 2026-04-29 01:22 | 40.14884 | 44.40033 | 2837 ft | 9 kts | 359° |
| 2026-04-29 01:22 | 40.14939 | 44.40031 | 2836 ft | 4 kts | 359° |
| 2026-04-29 01:23 | 40.14943 | 44.40031 | 2837 ft | 0 kts | 359° |
| 2026-04-29 01:23 | 40.14946 | 44.40031 | 2837 ft | 1 kts | 357° |
| 2026-04-29 01:23 | 40.14948 | 44.40031 | 2837 ft | 1 kts | 355° |
| 2026-04-29 01:23 | 40.14969 | 44.40019 | 2838 ft | 4 kts | 334° |
| 2026-04-29 01:24 | 40.14999 | 44.40006 | 2838 ft | 5 kts | 353° |
| 2026-04-29 01:24 | 40.15034 | 44.40005 | 2836 ft | 5 kts | 359° |
| 2026-04-29 01:24 | 40.15072 | 44.40005 | 2837 ft | 6 kts | 1° |
| 2026-04-29 01:24 | 40.15099 | 44.40005 | 2837 ft | 0 kts | 359° |